sensor_id;sensor_type;location;lat;lon;timestamp;temperature;humidity
25112;DHT22;13092;51.996;4.458;2023-04-24T00:00:39;11.20;99.90
25112;DHT22;13092;51.996;4.458;2023-04-24T00:03:08;11.10;99.90
25112;DHT22;13092;51.996;4.458;2023-04-24T00:05:36;11.20;99.90
25112;DHT22;13092;51.996;4.458;2023-04-24T00:08:07;11.30;99.90
25112;DHT22;13092;51.996;4.458;2023-04-24T00:10:35;11.20;99.90
25112;DHT22;13092;51.996;4.458;2023-04-24T00:13:03;11.20;99.90
25112;DHT22;13092;51.996;4.458;2023-04-24T00:15:33;11.20;99.90
25112;DHT22;13092;51.996;4.458;2023-04-24T00:18:01;11.30;99.90
25112;DHT22;13092;51.996;4.458;2023-04-24T00:20:29;11.10;99.90
25112;DHT22;13092;51.996;4.458;2023-04-24T00:22:59;11.20;99.90
25112;DHT22;13092;51.996;4.458;2023-04-24T00:25:27;11.30;99.90
25112;DHT22;13092;51.996;4.458;2023-04-24T00:27:55;11.40;99.90
25112;DHT22;13092;51.996;4.458;2023-04-24T00:30:23;11.20;99.90
25112;DHT22;13092;51.996;4.458;2023-04-24T00:32:53;11.20;99.90
25112;DHT22;13092;51.996;4.458;2023-04-24T00:35:21;11.20;99.90
25112;DHT22;13092;51.996;4.458;2023-04-24T00:37:51;11.00;99.90
25112;DHT22;13092;51.996;4.458;2023-04-24T00:40:20;11.10;99.90
25112;DHT22;13092;51.996;4.458;2023-04-24T00:42:48;11.10;99.90
25112;DHT22;13092;51.996;4.458;2023-04-24T00:45:17;11.10;99.90
25112;DHT22;13092;51.996;4.458;2023-04-24T00:47:45;11.10;99.90
25112;DHT22;13092;51.996;4.458;2023-04-24T00:50:16;11.10;99.90
25112;DHT22;13092;51.996;4.458;2023-04-24T00:52:46;11.00;99.90
25112;DHT22;13092;51.996;4.458;2023-04-24T00:55:14;11.00;99.90
25112;DHT22;13092;51.996;4.458;2023-04-24T00:57:44;11.00;99.90
25112;DHT22;13092;51.996;4.458;2023-04-24T01:00:14;11.00;99.90
25112;DHT22;13092;51.996;4.458;2023-04-24T01:02:43;11.00;99.90
25112;DHT22;13092;51.996;4.458;2023-04-24T01:05:13;11.00;99.90
25112;DHT22;13092;51.996;4.458;2023-04-24T01:07:44;11.00;99.90
25112;DHT22;13092;51.996;4.458;2023-04-24T01:10:15;11.00;99.90
25112;DHT22;13092;51.996;4.458;2023-04-24T01:12:44;11.00;99.90
25112;DHT22;13092;51.996;4.458;2023-04-24T01:15:12;10.90;99.90
25112;DHT22;13092;51.996;4.458;2023-04-24T01:17:40;11.00;99.90
25112;DHT22;13092;51.996;4.458;2023-04-24T01:20:09;10.90;99.90
25112;DHT22;13092;51.996;4.458;2023-04-24T01:22:39;11.00;99.90
25112;DHT22;13092;51.996;4.458;2023-04-24T01:25:08;11.00;99.90
25112;DHT22;13092;51.996;4.458;2023-04-24T01:27:37;10.90;99.90
25112;DHT22;13092;51.996;4.458;2023-04-24T01:30:08;10.90;99.90
25112;DHT22;13092;51.996;4.458;2023-04-24T01:32:37;10.90;99.90
25112;DHT22;13092;51.996;4.458;2023-04-24T01:35:07;10.90;99.90
25112;DHT22;13092;51.996;4.458;2023-04-24T01:37:35;10.90;99.90
25112;DHT22;13092;51.996;4.458;2023-04-24T01:40:07;10.90;99.90
25112;DHT22;13092;51.996;4.458;2023-04-24T01:42:36;10.90;99.90
25112;DHT22;13092;51.996;4.458;2023-04-24T01:45:05;10.90;99.90
25112;DHT22;13092;51.996;4.458;2023-04-24T01:47:33;10.90;99.90
25112;DHT22;13092;51.996;4.458;2023-04-24T01:50:05;11.00;99.90
25112;DHT22;13092;51.996;4.458;2023-04-24T01:52:34;11.00;99.90
25112;DHT22;13092;51.996;4.458;2023-04-24T01:55:03;11.00;99.90
25112;DHT22;13092;51.996;4.458;2023-04-24T01:57:34;11.00;99.90
25112;DHT22;13092;51.996;4.458;2023-04-24T02:00:09;11.00;99.90
25112;DHT22;13092;51.996;4.458;2023-04-24T02:02:39;11.00;99.90
25112;DHT22;13092;51.996;4.458;2023-04-24T02:05:11;11.00;99.90
25112;DHT22;13092;51.996;4.458;2023-04-24T02:07:39;11.00;99.90
25112;DHT22;13092;51.996;4.458;2023-04-24T02:10:08;11.00;99.90
25112;DHT22;13092;51.996;4.458;2023-04-24T02:12:38;11.00;99.90
25112;DHT22;13092;51.996;4.458;2023-04-24T02:15:10;11.00;99.90
25112;DHT22;13092;51.996;4.458;2023-04-24T02:17:38;11.10;99.90
25112;DHT22;13092;51.996;4.458;2023-04-24T02:20:10;11.10;99.90
25112;DHT22;13092;51.996;4.458;2023-04-24T02:22:39;11.10;99.90
25112;DHT22;13092;51.996;4.458;2023-04-24T02:25:10;11.10;99.90
25112;DHT22;13092;51.996;4.458;2023-04-24T02:27:39;10.90;99.90
25112;DHT22;13092;51.996;4.458;2023-04-24T02:30:10;11.00;99.90
25112;DHT22;13092;51.996;4.458;2023-04-24T02:32:39;10.90;99.90
25112;DHT22;13092;51.996;4.458;2023-04-24T02:35:08;10.90;99.90
25112;DHT22;13092;51.996;4.458;2023-04-24T02:37:36;10.90;99.90
25112;DHT22;13092;51.996;4.458;2023-04-24T02:40:05;10.70;99.90
25112;DHT22;13092;51.996;4.458;2023-04-24T02:42:34;10.80;99.90
25112;DHT22;13092;51.996;4.458;2023-04-24T02:45:04;10.70;99.90
25112;DHT22;13092;51.996;4.458;2023-04-24T02:47:33;10.70;99.90
25112;DHT22;13092;51.996;4.458;2023-04-24T02:50:01;10.70;99.90
25112;DHT22;13092;51.996;4.458;2023-04-24T02:52:30;10.70;99.90
25112;DHT22;13092;51.996;4.458;2023-04-24T02:54:58;10.60;99.90
25112;DHT22;13092;51.996;4.458;2023-04-24T02:57:27;10.50;99.90
25112;DHT22;13092;51.996;4.458;2023-04-24T02:59:56;10.50;99.90
25112;DHT22;13092;51.996;4.458;2023-04-24T03:02:25;10.50;99.90
25112;DHT22;13092;51.996;4.458;2023-04-24T03:04:53;10.40;99.90
25112;DHT22;13092;51.996;4.458;2023-04-24T03:07:22;10.40;99.90
25112;DHT22;13092;51.996;4.458;2023-04-24T03:09:50;10.50;99.90
25112;DHT22;13092;51.996;4.458;2023-04-24T03:12:19;10.50;99.90
25112;DHT22;13092;51.996;4.458;2023-04-24T03:14:50;10.50;99.90
25112;DHT22;13092;51.996;4.458;2023-04-24T03:17:18;10.50;99.90
25112;DHT22;13092;51.996;4.458;2023-04-24T03:19:48;10.50;99.90
25112;DHT22;13092;51.996;4.458;2023-04-24T03:22:16;10.50;99.90
25112;DHT22;13092;51.996;4.458;2023-04-24T03:24:44;10.50;99.90
25112;DHT22;13092;51.996;4.458;2023-04-24T03:27:12;10.60;99.90
25112;DHT22;13092;51.996;4.458;2023-04-24T03:29:43;10.60;99.90
25112;DHT22;13092;51.996;4.458;2023-04-24T03:32:11;10.60;99.90
25112;DHT22;13092;51.996;4.458;2023-04-24T03:34:43;10.60;99.90
25112;DHT22;13092;51.996;4.458;2023-04-24T03:37:12;10.60;99.90
25112;DHT22;13092;51.996;4.458;2023-04-24T03:39:41;10.70;99.90
25112;DHT22;13092;51.996;4.458;2023-04-24T03:42:09;10.80;99.90
25112;DHT22;13092;51.996;4.458;2023-04-24T03:44:37;10.80;99.90
25112;DHT22;13092;51.996;4.458;2023-04-24T03:47:06;10.90;99.90
25112;DHT22;13092;51.996;4.458;2023-04-24T03:49:35;10.90;99.90
25112;DHT22;13092;51.996;4.458;2023-04-24T03:52:03;10.90;99.90
25112;DHT22;13092;51.996;4.458;2023-04-24T03:54:33;11.00;99.90
25112;DHT22;13092;51.996;4.458;2023-04-24T03:57:01;11.00;99.90
25112;DHT22;13092;51.996;4.458;2023-04-24T03:59:30;11.10;99.90
25112;DHT22;13092;51.996;4.458;2023-04-24T04:01:58;11.10;99.90
25112;DHT22;13092;51.996;4.458;2023-04-24T04:04:26;11.20;99.90
25112;DHT22;13092;51.996;4.458;2023-04-24T04:06:55;11.00;99.90
25112;DHT22;13092;51.996;4.458;2023-04-24T04:09:23;11.00;99.90
25112;DHT22;13092;51.996;4.458;2023-04-24T04:11:52;10.90;99.90
25112;DHT22;13092;51.996;4.458;2023-04-24T04:14:22;10.90;99.90
25112;DHT22;13092;51.996;4.458;2023-04-24T04:16:50;11.00;99.90
25112;DHT22;13092;51.996;4.458;2023-04-24T04:19:20;10.80;99.90
25112;DHT22;13092;51.996;4.458;2023-04-24T04:21:48;10.80;99.90
25112;DHT22;13092;51.996;4.458;2023-04-24T04:24:19;10.80;99.90
25112;DHT22;13092;51.996;4.458;2023-04-24T04:26:53;10.70;99.90
25112;DHT22;13092;51.996;4.458;2023-04-24T04:29:23;10.70;99.90
25112;DHT22;13092;51.996;4.458;2023-04-24T04:31:52;10.70;99.90
25112;DHT22;13092;51.996;4.458;2023-04-24T04:34:22;10.60;99.90
25112;DHT22;13092;51.996;4.458;2023-04-24T04:36:50;10.60;99.90
25112;DHT22;13092;51.996;4.458;2023-04-24T04:39:19;10.70;99.90
25112;DHT22;13092;51.996;4.458;2023-04-24T04:41:47;10.50;99.90
25112;DHT22;13092;51.996;4.458;2023-04-24T04:44:18;10.50;99.90
25112;DHT22;13092;51.996;4.458;2023-04-24T04:46:48;10.50;99.90
25112;DHT22;13092;51.996;4.458;2023-04-24T04:49:16;10.40;99.90
25112;DHT22;13092;51.996;4.458;2023-04-24T04:51:45;10.30;99.90
25112;DHT22;13092;51.996;4.458;2023-04-24T04:54:13;10.40;99.90
25112;DHT22;13092;51.996;4.458;2023-04-24T04:56:42;10.30;99.90
25112;DHT22;13092;51.996;4.458;2023-04-24T04:59:11;10.20;99.90
25112;DHT22;13092;51.996;4.458;2023-04-24T05:01:43;10.20;99.90
25112;DHT22;13092;51.996;4.458;2023-04-24T05:04:11;10.10;99.90
25112;DHT22;13092;51.996;4.458;2023-04-24T05:06:43;10.00;99.90
25112;DHT22;13092;51.996;4.458;2023-04-24T05:09:11;10.00;99.90
25112;DHT22;13092;51.996;4.458;2023-04-24T05:11:39;10.00;99.90
25112;DHT22;13092;51.996;4.458;2023-04-24T05:14:07;10.00;99.90
25112;DHT22;13092;51.996;4.458;2023-04-24T05:16:35;10.00;99.90
25112;DHT22;13092;51.996;4.458;2023-04-24T05:19:06;10.00;99.90
25112;DHT22;13092;51.996;4.458;2023-04-24T05:21:38;10.00;99.90
25112;DHT22;13092;51.996;4.458;2023-04-24T05:24:07;10.00;99.90
25112;DHT22;13092;51.996;4.458;2023-04-24T05:26:35;9.90;99.90
25112;DHT22;13092;51.996;4.458;2023-04-24T05:29:03;9.90;99.90
25112;DHT22;13092;51.996;4.458;2023-04-24T05:31:32;9.90;99.90
25112;DHT22;13092;51.996;4.458;2023-04-24T05:34:00;9.90;99.90
25112;DHT22;13092;51.996;4.458;2023-04-24T05:36:30;9.90;99.90
25112;DHT22;13092;51.996;4.458;2023-04-24T05:38:58;9.90;99.90
25112;DHT22;13092;51.996;4.458;2023-04-24T05:41:26;9.80;99.90
25112;DHT22;13092;51.996;4.458;2023-04-24T05:43:55;9.90;99.90
25112;DHT22;13092;51.996;4.458;2023-04-24T05:46:23;9.80;99.90
25112;DHT22;13092;51.996;4.458;2023-04-24T05:48:54;9.90;99.90
25112;DHT22;13092;51.996;4.458;2023-04-24T05:51:22;9.90;99.90
25112;DHT22;13092;51.996;4.458;2023-04-24T05:53:51;9.90;99.90
25112;DHT22;13092;51.996;4.458;2023-04-24T05:56:20;9.90;99.90
25112;DHT22;13092;51.996;4.458;2023-04-24T05:58:48;9.90;99.90
25112;DHT22;13092;51.996;4.458;2023-04-24T06:01:16;9.90;99.90
25112;DHT22;13092;51.996;4.458;2023-04-24T06:03:44;10.00;99.90
25112;DHT22;13092;51.996;4.458;2023-04-24T06:06:14;10.00;99.90
25112;DHT22;13092;51.996;4.458;2023-04-24T06:08:42;10.10;99.90
25112;DHT22;13092;51.996;4.458;2023-04-24T06:11:13;10.00;99.90
25112;DHT22;13092;51.996;4.458;2023-04-24T06:13:42;10.00;99.90
25112;DHT22;13092;51.996;4.458;2023-04-24T06:16:10;10.00;99.90
25112;DHT22;13092;51.996;4.458;2023-04-24T06:18:39;10.00;99.90
25112;DHT22;13092;51.996;4.458;2023-04-24T06:21:08;9.90;99.90
25112;DHT22;13092;51.996;4.458;2023-04-24T06:23:36;9.90;99.90
25112;DHT22;13092;51.996;4.458;2023-04-24T06:26:04;9.80;99.90
25112;DHT22;13092;51.996;4.458;2023-04-24T06:28:36;9.90;99.90
25112;DHT22;13092;51.996;4.458;2023-04-24T06:31:04;10.00;99.90
25112;DHT22;13092;51.996;4.458;2023-04-24T06:33:32;10.00;99.90
25112;DHT22;13092;51.996;4.458;2023-04-24T06:36:00;10.00;99.90
25112;DHT22;13092;51.996;4.458;2023-04-24T06:38:30;10.10;99.90
25112;DHT22;13092;51.996;4.458;2023-04-24T06:40:58;10.00;99.90
25112;DHT22;13092;51.996;4.458;2023-04-24T06:43:28;10.10;99.90
25112;DHT22;13092;51.996;4.458;2023-04-24T06:45:57;10.10;99.90
25112;DHT22;13092;51.996;4.458;2023-04-24T06:48:26;10.00;99.90
25112;DHT22;13092;51.996;4.458;2023-04-24T06:50:54;10.00;99.90
25112;DHT22;13092;51.996;4.458;2023-04-24T06:53:22;10.10;99.90
25112;DHT22;13092;51.996;4.458;2023-04-24T06:55:52;10.20;99.90
25112;DHT22;13092;51.996;4.458;2023-04-24T06:58:20;10.20;99.90
25112;DHT22;13092;51.996;4.458;2023-04-24T07:00:49;10.20;99.90
25112;DHT22;13092;51.996;4.458;2023-04-24T07:03:18;10.20;99.90
25112;DHT22;13092;51.996;4.458;2023-04-24T07:05:48;10.30;99.90
25112;DHT22;13092;51.996;4.458;2023-04-24T07:08:16;10.00;99.90
25112;DHT22;13092;51.996;4.458;2023-04-24T07:10:44;10.00;99.90
25112;DHT22;13092;51.996;4.458;2023-04-24T07:13:12;9.90;99.90
25112;DHT22;13092;51.996;4.458;2023-04-24T07:15:41;9.90;99.90
25112;DHT22;13092;51.996;4.458;2023-04-24T07:18:09;9.90;99.90
25112;DHT22;13092;51.996;4.458;2023-04-24T07:20:39;10.00;99.90
25112;DHT22;13092;51.996;4.458;2023-04-24T07:23:08;9.90;99.90
25112;DHT22;13092;51.996;4.458;2023-04-24T07:25:36;10.00;99.90
25112;DHT22;13092;51.996;4.458;2023-04-24T07:28:05;10.00;99.90
25112;DHT22;13092;51.996;4.458;2023-04-24T07:30:34;10.00;99.90
25112;DHT22;13092;51.996;4.458;2023-04-24T07:33:02;9.90;99.90
25112;DHT22;13092;51.996;4.458;2023-04-24T07:35:30;10.10;99.90
25112;DHT22;13092;51.996;4.458;2023-04-24T07:38:00;10.10;99.90
25112;DHT22;13092;51.996;4.458;2023-04-24T07:40:28;10.10;99.90
25112;DHT22;13092;51.996;4.458;2023-04-24T07:42:56;10.20;99.90
25112;DHT22;13092;51.996;4.458;2023-04-24T07:45:24;10.20;99.90
25112;DHT22;13092;51.996;4.458;2023-04-24T07:47:55;10.20;99.90
25112;DHT22;13092;51.996;4.458;2023-04-24T07:50:23;10.20;99.90
25112;DHT22;13092;51.996;4.458;2023-04-24T07:52:51;10.20;99.90
25112;DHT22;13092;51.996;4.458;2023-04-24T07:55:21;10.20;99.90
25112;DHT22;13092;51.996;4.458;2023-04-24T07:57:53;10.20;99.90
25112;DHT22;13092;51.996;4.458;2023-04-24T08:00:22;10.10;99.90
25112;DHT22;13092;51.996;4.458;2023-04-24T08:02:50;10.20;99.90
25112;DHT22;13092;51.996;4.458;2023-04-24T08:05:19;10.20;99.90
25112;DHT22;13092;51.996;4.458;2023-04-24T08:07:47;10.20;99.90
25112;DHT22;13092;51.996;4.458;2023-04-24T08:10:17;10.20;99.90
25112;DHT22;13092;51.996;4.458;2023-04-24T08:12:46;10.20;99.90
25112;DHT22;13092;51.996;4.458;2023-04-24T08:15:14;10.10;99.90
25112;DHT22;13092;51.996;4.458;2023-04-24T08:17:43;10.10;99.90
25112;DHT22;13092;51.996;4.458;2023-04-24T08:20:12;10.20;99.90
25112;DHT22;13092;51.996;4.458;2023-04-24T08:22:42;10.20;99.90
25112;DHT22;13092;51.996;4.458;2023-04-24T08:25:10;10.20;99.90
25112;DHT22;13092;51.996;4.458;2023-04-24T08:27:38;10.20;99.90
25112;DHT22;13092;51.996;4.458;2023-04-24T08:30:09;10.30;99.90
25112;DHT22;13092;51.996;4.458;2023-04-24T08:32:37;10.30;99.90
25112;DHT22;13092;51.996;4.458;2023-04-24T08:35:08;10.40;99.90
25112;DHT22;13092;51.996;4.458;2023-04-24T08:37:36;10.30;99.90
25112;DHT22;13092;51.996;4.458;2023-04-24T08:40:12;10.30;99.90
25112;DHT22;13092;51.996;4.458;2023-04-24T08:42:42;10.40;99.90
25112;DHT22;13092;51.996;4.458;2023-04-24T08:45:13;10.30;99.90
25112;DHT22;13092;51.996;4.458;2023-04-24T08:47:42;10.30;99.90
25112;DHT22;13092;51.996;4.458;2023-04-24T08:50:11;10.20;99.90
25112;DHT22;13092;51.996;4.458;2023-04-24T08:52:39;10.20;99.90
25112;DHT22;13092;51.996;4.458;2023-04-24T08:55:08;10.20;99.90
25112;DHT22;13092;51.996;4.458;2023-04-24T08:57:36;10.30;99.90
25112;DHT22;13092;51.996;4.458;2023-04-24T09:00:08;10.30;99.90
25112;DHT22;13092;51.996;4.458;2023-04-24T09:02:42;10.20;99.90
25112;DHT22;13092;51.996;4.458;2023-04-24T09:05:12;10.20;99.90
25112;DHT22;13092;51.996;4.458;2023-04-24T09:07:45;10.10;99.90
25112;DHT22;13092;51.996;4.458;2023-04-24T09:10:15;10.10;99.90
25112;DHT22;13092;51.996;4.458;2023-04-24T09:12:44;10.00;99.90
25112;DHT22;13092;51.996;4.458;2023-04-24T09:15:12;9.90;99.90
25112;DHT22;13092;51.996;4.458;2023-04-24T09:17:43;9.90;99.90
25112;DHT22;13092;51.996;4.458;2023-04-24T09:20:11;10.00;99.90
25112;DHT22;13092;51.996;4.458;2023-04-24T09:22:39;10.00;99.90
25112;DHT22;13092;51.996;4.458;2023-04-24T09:25:09;10.20;99.90
25112;DHT22;13092;51.996;4.458;2023-04-24T09:27:42;10.30;99.90
25112;DHT22;13092;51.996;4.458;2023-04-24T09:30:12;10.40;99.90
25112;DHT22;13092;51.996;4.458;2023-04-24T09:32:45;10.40;99.90
25112;DHT22;13092;51.996;4.458;2023-04-24T09:35:14;10.50;99.90
25112;DHT22;13092;51.996;4.458;2023-04-24T09:37:44;10.60;99.90
25112;DHT22;13092;51.996;4.458;2023-04-24T09:40:14;10.70;99.90
25112;DHT22;13092;51.996;4.458;2023-04-24T09:42:46;10.80;99.90
25112;DHT22;13092;51.996;4.458;2023-04-24T09:45:19;10.80;99.90
25112;DHT22;13092;51.996;4.458;2023-04-24T09:47:53;10.80;99.90
25112;DHT22;13092;51.996;4.458;2023-04-24T09:50:22;10.90;99.90
25112;DHT22;13092;51.996;4.458;2023-04-24T09:52:57;10.80;99.90
25112;DHT22;13092;51.996;4.458;2023-04-24T09:55:25;10.70;99.90
25112;DHT22;13092;51.996;4.458;2023-04-24T09:57:58;10.80;99.90
25112;DHT22;13092;51.996;4.458;2023-04-24T10:00:28;10.60;99.90
25112;DHT22;13092;51.996;4.458;2023-04-24T10:02:59;10.60;99.90
25112;DHT22;13092;51.996;4.458;2023-04-24T10:05:29;10.60;99.90
25112;DHT22;13092;51.996;4.458;2023-04-24T10:08:01;10.50;99.90
25112;DHT22;13092;51.996;4.458;2023-04-24T10:10:29;10.70;99.90
25112;DHT22;13092;51.996;4.458;2023-04-24T10:13:00;10.90;99.90
25112;DHT22;13092;51.996;4.458;2023-04-24T10:15:34;10.90;99.90
25112;DHT22;13092;51.996;4.458;2023-04-24T10:18:04;10.80;99.90
25112;DHT22;13092;51.996;4.458;2023-04-24T10:20:34;10.70;99.90
25112;DHT22;13092;51.996;4.458;2023-04-24T10:23:03;10.60;99.90
25112;DHT22;13092;51.996;4.458;2023-04-24T10:25:33;10.70;99.90
25112;DHT22;13092;51.996;4.458;2023-04-24T10:28:03;10.50;99.90
25112;DHT22;13092;51.996;4.458;2023-04-24T10:30:34;10.40;99.90
25112;DHT22;13092;51.996;4.458;2023-04-24T10:33:05;10.40;99.90
25112;DHT22;13092;51.996;4.458;2023-04-24T10:35:35;10.40;99.90
25112;DHT22;13092;51.996;4.458;2023-04-24T10:38:08;10.40;99.90
25112;DHT22;13092;51.996;4.458;2023-04-24T10:40:42;10.50;99.90
25112;DHT22;13092;51.996;4.458;2023-04-24T10:43:16;10.50;99.90
25112;DHT22;13092;51.996;4.458;2023-04-24T10:46:00;10.60;99.90
25112;DHT22;13092;51.996;4.458;2023-04-24T10:48:31;10.60;99.90
25112;DHT22;13092;51.996;4.458;2023-04-24T10:51:00;10.80;99.90
25112;DHT22;13092;51.996;4.458;2023-04-24T10:53:35;11.00;99.90
25112;DHT22;13092;51.996;4.458;2023-04-24T10:56:04;11.00;99.90
25112;DHT22;13092;51.996;4.458;2023-04-24T10:58:37;11.00;99.90
25112;DHT22;13092;51.996;4.458;2023-04-24T11:01:07;11.00;99.90
25112;DHT22;13092;51.996;4.458;2023-04-24T11:03:37;10.90;99.90
25112;DHT22;13092;51.996;4.458;2023-04-24T11:06:09;10.80;99.90
25112;DHT22;13092;51.996;4.458;2023-04-24T11:08:38;10.80;99.90
25112;DHT22;13092;51.996;4.458;2023-04-24T11:11:10;10.90;99.90
25112;DHT22;13092;51.996;4.458;2023-04-24T11:14:04;10.90;99.90
25112;DHT22;13092;51.996;4.458;2023-04-24T11:16:35;11.10;99.90
25112;DHT22;13092;51.996;4.458;2023-04-24T11:19:08;11.30;99.90
25112;DHT22;13092;51.996;4.458;2023-04-24T11:21:41;11.40;99.90
25112;DHT22;13092;51.996;4.458;2023-04-24T11:24:27;11.50;99.90
25112;DHT22;13092;51.996;4.458;2023-04-24T11:26:57;11.70;99.90
25112;DHT22;13092;51.996;4.458;2023-04-24T11:29:41;11.80;99.90
25112;DHT22;13092;51.996;4.458;2023-04-24T11:32:27;12.00;99.90
25112;DHT22;13092;51.996;4.458;2023-04-24T11:34:58;12.10;99.90
25112;DHT22;13092;51.996;4.458;2023-04-24T11:37:28;11.90;99.90
25112;DHT22;13092;51.996;4.458;2023-04-24T11:39:58;11.90;99.90
25112;DHT22;13092;51.996;4.458;2023-04-24T11:42:28;11.80;99.90
25112;DHT22;13092;51.996;4.458;2023-04-24T11:44:56;11.90;99.90
25112;DHT22;13092;51.996;4.458;2023-04-24T11:47:31;11.80;99.90
25112;DHT22;13092;51.996;4.458;2023-04-24T11:50:03;11.90;99.90
25112;DHT22;13092;51.996;4.458;2023-04-24T11:52:31;11.90;99.90
25112;DHT22;13092;51.996;4.458;2023-04-24T11:54:59;11.80;99.90
25112;DHT22;13092;51.996;4.458;2023-04-24T11:57:28;12.00;99.90
25112;DHT22;13092;51.996;4.458;2023-04-24T12:00:00;11.80;99.90
25112;DHT22;13092;51.996;4.458;2023-04-24T12:02:31;11.80;99.90
25112;DHT22;13092;51.996;4.458;2023-04-24T12:05:00;11.80;99.90
25112;DHT22;13092;51.996;4.458;2023-04-24T12:07:40;11.90;99.90
25112;DHT22;13092;51.996;4.458;2023-04-24T12:10:10;11.80;99.90
25112;DHT22;13092;51.996;4.458;2023-04-24T12:12:38;11.70;99.90
25112;DHT22;13092;51.996;4.458;2023-04-24T12:15:08;11.50;99.90
25112;DHT22;13092;51.996;4.458;2023-04-24T12:17:36;11.30;99.90
25112;DHT22;13092;51.996;4.458;2023-04-24T12:20:11;11.00;99.90
25112;DHT22;13092;51.996;4.458;2023-04-24T12:22:43;10.80;99.90
25112;DHT22;13092;51.996;4.458;2023-04-24T12:25:14;10.70;99.90
25112;DHT22;13092;51.996;4.458;2023-04-24T12:27:43;10.50;99.90
25112;DHT22;13092;51.996;4.458;2023-04-24T12:30:15;10.60;99.90
25112;DHT22;13092;51.996;4.458;2023-04-24T12:32:46;10.80;99.90
25112;DHT22;13092;51.996;4.458;2023-04-24T12:35:19;10.90;99.90
25112;DHT22;13092;51.996;4.458;2023-04-24T12:37:48;11.00;99.90
25112;DHT22;13092;51.996;4.458;2023-04-24T12:40:18;11.20;99.90
25112;DHT22;13092;51.996;4.458;2023-04-24T12:42:49;11.30;99.90
25112;DHT22;13092;51.996;4.458;2023-04-24T12:45:19;11.30;99.90
25112;DHT22;13092;51.996;4.458;2023-04-24T12:47:51;11.30;99.90
25112;DHT22;13092;51.996;4.458;2023-04-24T12:50:21;11.20;99.90
25112;DHT22;13092;51.996;4.458;2023-04-24T12:52:49;11.20;99.90
25112;DHT22;13092;51.996;4.458;2023-04-24T12:55:18;11.10;99.90
25112;DHT22;13092;51.996;4.458;2023-04-24T12:57:46;11.10;99.90
25112;DHT22;13092;51.996;4.458;2023-04-24T13:00:15;11.00;99.90
25112;DHT22;13092;51.996;4.458;2023-04-24T13:02:45;11.10;99.90
25112;DHT22;13092;51.996;4.458;2023-04-24T13:05:14;11.10;99.90
25112;DHT22;13092;51.996;4.458;2023-04-24T13:07:43;11.10;99.90
25112;DHT22;13092;51.996;4.458;2023-04-24T13:10:11;11.20;99.90
25112;DHT22;13092;51.996;4.458;2023-04-24T13:12:40;11.10;99.90
25112;DHT22;13092;51.996;4.458;2023-04-24T13:15:12;11.10;99.90
25112;DHT22;13092;51.996;4.458;2023-04-24T13:17:43;11.00;99.90
25112;DHT22;13092;51.996;4.458;2023-04-24T13:20:11;11.00;99.90
25112;DHT22;13092;51.996;4.458;2023-04-24T13:22:40;11.00;99.90
25112;DHT22;13092;51.996;4.458;2023-04-24T13:25:20;11.00;99.90
25112;DHT22;13092;51.996;4.458;2023-04-24T13:27:50;11.10;99.90
25112;DHT22;13092;51.996;4.458;2023-04-24T13:30:18;11.10;99.90
25112;DHT22;13092;51.996;4.458;2023-04-24T13:32:46;11.30;99.90
25112;DHT22;13092;51.996;4.458;2023-04-24T13:35:17;11.40;99.90
25112;DHT22;13092;51.996;4.458;2023-04-24T13:37:45;11.50;99.90
25112;DHT22;13092;51.996;4.458;2023-04-24T13:40:16;11.60;99.90
25112;DHT22;13092;51.996;4.458;2023-04-24T13:42:45;11.70;99.90
25112;DHT22;13092;51.996;4.458;2023-04-24T13:45:13;11.70;99.90
25112;DHT22;13092;51.996;4.458;2023-04-24T13:47:51;11.90;99.90
25112;DHT22;13092;51.996;4.458;2023-04-24T13:50:20;12.00;99.90
25112;DHT22;13092;51.996;4.458;2023-04-24T13:52:49;12.10;99.90
25112;DHT22;13092;51.996;4.458;2023-04-24T13:55:17;12.00;99.90
25112;DHT22;13092;51.996;4.458;2023-04-24T13:57:47;11.80;99.90
25112;DHT22;13092;51.996;4.458;2023-04-24T14:00:16;11.60;99.90
25112;DHT22;13092;51.996;4.458;2023-04-24T14:02:44;11.60;99.90
25112;DHT22;13092;51.996;4.458;2023-04-24T14:05:13;11.60;99.90
25112;DHT22;13092;51.996;4.458;2023-04-24T14:07:41;11.70;99.90
25112;DHT22;13092;51.996;4.458;2023-04-24T14:10:10;11.60;99.90
25112;DHT22;13092;51.996;4.458;2023-04-24T14:12:38;11.50;99.90
25112;DHT22;13092;51.996;4.458;2023-04-24T14:15:09;11.40;99.90
25112;DHT22;13092;51.996;4.458;2023-04-24T14:17:40;11.30;99.90
25112;DHT22;13092;51.996;4.458;2023-04-24T14:20:09;11.10;99.90
25112;DHT22;13092;51.996;4.458;2023-04-24T14:22:37;10.90;99.90
25112;DHT22;13092;51.996;4.458;2023-04-24T14:25:06;10.80;99.90
25112;DHT22;13092;51.996;4.458;2023-04-24T14:27:34;10.90;99.90
25112;DHT22;13092;51.996;4.458;2023-04-24T14:30:03;11.10;99.90
25112;DHT22;13092;51.996;4.458;2023-04-24T14:32:34;11.10;99.90
25112;DHT22;13092;51.996;4.458;2023-04-24T14:35:03;11.20;99.90
25112;DHT22;13092;51.996;4.458;2023-04-24T14:37:31;11.10;99.90
25112;DHT22;13092;51.996;4.458;2023-04-24T14:40:00;11.10;99.90
25112;DHT22;13092;51.996;4.458;2023-04-24T14:42:48;11.00;99.90
25112;DHT22;13092;51.996;4.458;2023-04-24T14:45:17;11.10;99.90
25112;DHT22;13092;51.996;4.458;2023-04-24T14:47:47;11.30;99.90
25112;DHT22;13092;51.996;4.458;2023-04-24T14:50:17;11.40;99.90
25112;DHT22;13092;51.996;4.458;2023-04-24T14:52:50;11.40;99.90
25112;DHT22;13092;51.996;4.458;2023-04-24T14:55:21;11.50;99.90
25112;DHT22;13092;51.996;4.458;2023-04-24T14:57:49;11.50;99.90
25112;DHT22;13092;51.996;4.458;2023-04-24T15:00:18;11.40;99.90
25112;DHT22;13092;51.996;4.458;2023-04-24T15:02:48;11.20;99.90
25112;DHT22;13092;51.996;4.458;2023-04-24T15:05:17;11.30;99.90
25112;DHT22;13092;51.996;4.458;2023-04-24T15:07:45;11.20;99.90
25112;DHT22;13092;51.996;4.458;2023-04-24T15:10:13;11.10;99.90
25112;DHT22;13092;51.996;4.458;2023-04-24T15:12:42;11.10;99.90
25112;DHT22;13092;51.996;4.458;2023-04-24T15:15:13;11.10;99.90
25112;DHT22;13092;51.996;4.458;2023-04-24T15:17:41;11.10;99.90
25112;DHT22;13092;51.996;4.458;2023-04-24T15:20:11;11.10;99.90
25112;DHT22;13092;51.996;4.458;2023-04-24T15:22:39;11.30;99.90
25112;DHT22;13092;51.996;4.458;2023-04-24T15:25:08;11.10;99.90
25112;DHT22;13092;51.996;4.458;2023-04-24T15:27:43;11.00;99.90
25112;DHT22;13092;51.996;4.458;2023-04-24T15:30:12;10.80;99.90
25112;DHT22;13092;51.996;4.458;2023-04-24T15:32:41;10.80;99.90
25112;DHT22;13092;51.996;4.458;2023-04-24T15:35:11;10.90;99.90
25112;DHT22;13092;51.996;4.458;2023-04-24T15:37:39;11.00;99.90
25112;DHT22;13092;51.996;4.458;2023-04-24T15:40:08;11.10;99.90
25112;DHT22;13092;51.996;4.458;2023-04-24T15:42:38;11.40;99.90
25112;DHT22;13092;51.996;4.458;2023-04-24T15:45:07;11.40;99.90
25112;DHT22;13092;51.996;4.458;2023-04-24T15:47:36;11.40;99.90